createdAt,value
2022-09-26T00:00:24.500Z,1.60
2022-09-26T00:05:26.375Z,1.73
2022-09-26T00:10:27.749Z,1.60
2022-09-26T00:15:29.148Z,1.58
2022-09-26T00:20:30.531Z,1.55
2022-09-26T00:25:31.906Z,1.70
2022-09-26T00:30:36.124Z,1.80
2022-09-26T00:35:37.978Z,2.47
2022-09-26T00:40:39.571Z,1.52
2022-09-26T00:45:41.219Z,1.90
2022-09-26T00:50:42.611Z,1.60
2022-09-26T00:55:46.038Z,1.50
2022-09-26T01:00:48.328Z,1.90
2022-09-26T01:05:50.017Z,1.98
2022-09-26T01:10:51.501Z,1.67
2022-09-26T01:15:52.914Z,1.70
2022-09-26T01:21:02.958Z,1.73
2022-09-26T01:26:07.380Z,1.50
2022-09-26T01:31:08.805Z,2.08
2022-09-26T01:36:43.358Z,1.70
2022-09-26T01:41:53.896Z,1.70
2022-09-26T01:46:58.402Z,1.73
2022-09-26T01:51:59.694Z,1.80
2022-09-26T01:57:02.246Z,1.95
2022-09-26T02:02:07.940Z,1.67
2022-09-26T02:07:12.275Z,1.85
2022-09-26T02:12:17.318Z,1.63
2022-09-26T02:17:22.812Z,1.73
2022-09-26T02:22:26.744Z,1.60
2022-09-26T02:27:28.888Z,1.80
2022-09-26T02:32:31.334Z,1.90
2022-09-26T02:37:32.689Z,2.25
2022-09-26T02:42:36.772Z,1.85
2022-09-26T02:47:57.101Z,1.60
2022-09-26T02:53:13.471Z,2.03
2022-09-26T02:58:42.403Z,1.90
2022-09-26T03:03:52.147Z,2.10
2022-09-26T03:13:56.217Z,1.70
2022-09-26T03:18:57.518Z,1.90
2022-09-26T03:23:59.067Z,1.83
2022-09-26T03:29:00.404Z,1.98
2022-09-26T03:34:01.938Z,2.03
2022-09-26T03:39:03.351Z,1.95
2022-09-26T03:44:04.679Z,1.90
2022-09-26T03:49:06.069Z,1.90
2022-09-26T03:54:07.487Z,1.90
2022-09-26T03:59:09.221Z,1.98
2022-09-26T04:04:10.595Z,1.92
2022-09-26T04:09:16.519Z,1.98
2022-09-26T04:14:19.883Z,2.25
2022-09-26T04:19:21.239Z,2.00
2022-09-26T04:24:22.762Z,2.00
2022-09-26T04:29:24.142Z,2.10
2022-09-26T04:34:27.439Z,2.20
2022-09-26T04:39:28.947Z,2.17
2022-09-26T04:44:30.436Z,2.20
2022-09-26T04:49:31.918Z,1.92
2022-09-26T04:54:37.360Z,1.77
2022-09-26T04:59:38.701Z,2.40
2022-09-26T05:04:40.084Z,2.25
2022-09-26T05:09:42.871Z,2.40
2022-09-26T05:14:44.739Z,2.20
2022-09-26T05:19:46.091Z,2.20
2022-09-26T05:25:07.000Z,2.40
2022-09-26T05:30:08.585Z,2.17
2022-09-26T05:35:12.156Z,2.45
2022-09-26T05:40:32.450Z,2.10
2022-09-26T05:45:33.962Z,2.22
2022-09-26T05:50:35.442Z,2.28
2022-09-26T05:55:39.829Z,2.47
2022-09-26T06:00:41.295Z,2.42
2022-09-26T06:05:42.871Z,2.38
2022-09-26T06:10:44.212Z,1.92
2022-09-26T06:15:45.579Z,2.15
2022-09-26T06:20:47.155Z,2.70
2022-09-26T06:25:48.543Z,2.60
2022-09-26T06:30:49.870Z,2.35
2022-09-26T06:36:04.968Z,2.58
2022-09-26T06:41:07.540Z,2.40
2022-09-26T06:46:11.945Z,2.63
2022-09-26T06:51:16.332Z,3.00
2022-09-26T06:56:18.218Z,2.50
2022-09-26T07:01:19.633Z,2.67
2022-09-26T07:06:21.388Z,2.40
2022-09-26T07:16:44.719Z,2.40
2022-09-26T07:21:48.204Z,2.60
2022-09-26T07:26:49.885Z,2.78
2022-09-26T07:31:51.276Z,2.95
2022-09-26T07:36:53.488Z,2.78
2022-09-26T07:41:54.862Z,2.20
2022-09-26T07:47:14.897Z,2.70
2022-09-26T07:57:19.480Z,2.83
2022-09-26T08:02:21.964Z,2.60
2022-09-26T08:07:24.580Z,2.83
2022-09-26T08:12:27.060Z,2.95
2022-09-26T08:17:34.686Z,3.10
2022-09-26T08:22:36.071Z,3.30
2022-09-26T08:27:37.447Z,2.65
2022-09-26T08:32:39.035Z,3.10
2022-09-26T08:37:40.426Z,3.08
2022-09-26T08:43:04.279Z,2.72
2022-09-26T08:48:19.401Z,3.00
2022-09-26T08:53:24.462Z,2.80
2022-09-26T08:58:30.349Z,2.90
2022-09-26T09:03:33.818Z,3.03
2022-09-26T09:08:38.091Z,2.85
2022-09-26T09:13:45.981Z,2.60
2022-09-26T09:18:59.055Z,2.95
2022-09-26T09:24:00.458Z,3.13
2022-09-26T09:29:10.322Z,3.20
2022-09-26T09:34:17.663Z,3.15
2022-09-26T09:39:32.847Z,2.88
2022-09-26T09:44:47.818Z,2.92
2022-09-26T09:49:50.084Z,3.00
2022-09-26T09:54:55.569Z,2.65
2022-09-26T10:00:24.046Z,3.05
2022-09-26T10:05:45.440Z,3.00
2022-09-26T10:10:54.645Z,3.00
2022-09-26T10:16:00.997Z,2.45
2022-09-26T10:21:10.954Z,2.95
2022-09-26T10:26:13.806Z,2.72
2022-09-26T10:31:24.330Z,2.55
2022-09-26T10:36:36.664Z,3.08
2022-09-26T10:41:39.192Z,2.80
2022-09-26T10:46:45.328Z,2.55
2022-09-26T10:51:54.560Z,2.45
2022-09-26T10:56:59.446Z,2.50
2022-09-26T11:02:03.628Z,2.60
2022-09-26T11:07:07.473Z,3.03
2022-09-26T11:12:25.548Z,2.40
2022-09-26T11:17:45.131Z,2.08
2022-09-26T11:22:53.469Z,2.60
2022-09-26T11:28:08.408Z,1.70
2022-09-26T11:33:13.472Z,1.75
2022-09-26T11:38:38.300Z,1.70
2022-09-26T11:43:45.057Z,1.98
2022-09-26T11:48:49.347Z,1.98
2022-09-26T11:54:01.017Z,2.00
2022-09-26T11:59:08.883Z,1.98
2022-09-26T12:04:14.165Z,2.03
2022-09-26T12:09:34.211Z,2.40
2022-09-26T12:14:41.822Z,2.13
2022-09-26T12:19:55.723Z,2.45
2022-09-26T12:25:01.282Z,2.28
2022-09-26T12:30:05.944Z,2.40
2022-09-26T12:35:20.158Z,2.42
2022-09-26T12:40:27.428Z,2.10
2022-09-26T12:45:53.337Z,2.35
2022-09-26T12:50:57.745Z,1.88
2022-09-26T12:56:08.337Z,2.70
2022-09-26T13:01:12.055Z,2.65
2022-09-26T13:06:23.216Z,2.53
2022-09-26T13:11:27.332Z,2.47
2022-09-26T13:16:38.523Z,2.40
2022-09-26T13:21:50.431Z,2.78
2022-09-26T13:26:54.877Z,2.50
2022-09-26T13:32:25.552Z,2.75
2022-09-26T13:37:34.269Z,2.30
2022-09-26T13:42:44.302Z,2.37
2022-09-26T13:47:50.763Z,2.00
2022-09-26T13:52:54.982Z,2.72
2022-09-26T13:58:00.873Z,2.78
2022-09-26T14:03:16.359Z,2.10
2022-09-26T14:08:44.494Z,2.40
2022-09-26T14:13:47.238Z,2.70
2022-09-26T14:19:04.119Z,2.33
2022-09-26T14:24:21.053Z,2.38
2022-09-26T14:29:28.646Z,2.33
2022-09-26T14:34:32.708Z,2.17
2022-09-26T14:39:37.932Z,2.35
2022-09-26T14:44:45.807Z,2.90
2022-09-26T14:49:57.375Z,2.83
2022-09-26T14:55:02.974Z,2.30
2022-09-26T15:00:24.319Z,2.17
2022-09-26T15:05:26.160Z,2.67
2022-09-26T15:10:38.438Z,2.67
2022-09-26T15:15:52.224Z,2.33
2022-09-26T15:20:59.330Z,2.10
2022-09-26T15:31:20.462Z,2.58
2022-09-26T15:36:22.251Z,2.17
2022-09-26T15:41:43.891Z,2.88
2022-09-26T15:46:47.000Z,1.63
2022-09-26T15:51:54.536Z,2.90
2022-09-26T15:56:57.814Z,3.40
2022-09-26T16:01:59.782Z,2.95
2022-09-26T16:07:03.213Z,3.72
2022-09-26T16:12:04.746Z,4.07
2022-09-26T16:17:18.850Z,3.83
2022-09-26T16:22:36.468Z,3.25
2022-09-26T16:27:37.831Z,4.05
2022-09-26T16:32:39.226Z,3.05
2022-09-26T16:37:41.393Z,3.33
2022-09-26T16:42:44.797Z,2.83
2022-09-26T16:47:47.877Z,3.33
2022-09-26T16:52:49.300Z,3.45
2022-09-26T16:57:53.882Z,3.28
2022-09-26T17:02:55.322Z,3.17
2022-09-26T17:07:56.832Z,2.70
2022-09-26T17:13:02.647Z,3.05
2022-09-26T17:18:08.986Z,2.88
2022-09-26T17:23:34.967Z,2.58
2022-09-26T17:28:37.603Z,2.72
2022-09-26T17:33:40.868Z,3.15
2022-09-26T17:38:43.369Z,2.33
2022-09-26T17:43:45.175Z,2.33
2022-09-26T17:48:47.231Z,3.08
2022-09-26T17:53:51.003Z,2.35
2022-09-26T17:58:54.275Z,2.15
2022-09-26T18:03:58.958Z,2.20
2022-09-26T18:09:05.873Z,2.70
2022-09-26T18:14:08.205Z,3.20
2022-09-26T18:19:09.750Z,3.00
2022-09-26T18:24:19.249Z,4.85
2022-09-26T18:29:25.507Z,4.75
2022-09-26T18:34:26.888Z,5.18
2022-09-26T18:39:28.870Z,3.60
2022-09-26T18:44:34.994Z,2.28
2022-09-26T18:49:37.344Z,2.30
2022-09-26T18:54:41.469Z,1.48
2022-09-26T18:59:45.360Z,1.65
2022-09-26T19:04:46.770Z,1.48
2022-09-26T19:09:48.411Z,2.00
2022-09-26T19:14:49.833Z,1.83
2022-09-26T19:19:51.226Z,1.80
2022-09-26T19:24:54.330Z,1.75
2022-09-26T19:29:58.924Z,1.70
2022-09-26T19:35:01.759Z,1.98
2022-09-26T19:40:09.369Z,1.50
2022-09-26T19:45:11.346Z,1.90
2022-09-26T19:50:17.879Z,1.80
2022-09-26T19:55:24.283Z,2.00
2022-09-26T20:00:26.517Z,2.38
2022-09-26T20:05:28.180Z,1.45
2022-09-26T20:10:29.643Z,1.58
2022-09-26T20:15:31.557Z,1.50
2022-09-26T20:20:34.914Z,1.98
2022-09-26T20:25:36.674Z,1.90
2022-09-26T20:30:54.455Z,1.50
2022-09-26T20:36:02.634Z,1.30
2022-09-26T20:41:12.709Z,1.27
2022-09-26T20:46:15.051Z,1.40
2022-09-26T20:51:22.675Z,1.80
2022-09-26T20:56:24.024Z,1.90
2022-09-26T21:01:26.550Z,1.42
2022-09-26T21:06:31.777Z,1.40
2022-09-26T21:11:33.360Z,1.92
2022-09-26T21:16:35.494Z,1.70
2022-09-26T21:21:36.889Z,1.60
2022-09-26T21:26:38.536Z,1.80
2022-09-26T21:31:40.257Z,1.73
2022-09-26T21:36:41.856Z,1.30
2022-09-26T21:41:43.320Z,1.52
2022-09-26T21:46:44.711Z,1.90
2022-09-26T21:51:47.980Z,1.48
2022-09-26T21:56:52.161Z,1.27
2022-09-26T22:01:53.581Z,1.10
2022-09-26T22:06:54.959Z,0.90
2022-09-26T22:11:56.362Z,1.17
2022-09-26T22:16:59.092Z,1.60
2022-09-26T22:22:01.259Z,2.00
2022-09-26T22:27:03.012Z,1.30
2022-09-26T22:32:04.643Z,1.08
2022-09-26T22:37:06.029Z,0.88
2022-09-26T22:42:07.577Z,1.08
2022-09-26T22:47:08.885Z,0.80
2022-09-26T22:52:10.218Z,0.90
2022-09-26T22:57:11.620Z,1.13
2022-09-26T23:02:13.095Z,1.23
2022-09-26T23:07:15.450Z,1.10
2022-09-26T23:12:16.972Z,1.23
2022-09-26T23:17:18.435Z,1.13
2022-09-26T23:22:19.842Z,1.33
2022-09-26T23:27:21.931Z,1.05
2022-09-26T23:32:23.359Z,1.00
2022-09-26T23:37:24.677Z,1.10
2022-09-26T23:42:26.076Z,1.00
2022-09-26T23:47:27.458Z,0.90
2022-09-26T23:52:28.785Z,1.65
2022-09-26T23:57:30.148Z,1.20
